Kuniki — JM6488 — position and weather

sailwx.info

Track history (hours):
 
Tides and Currents Weather Stations Pressure Air Temp Water Temp Dewpoint Dewpoint Depression Visibility Wind Speed Wind Dir Waves Ship Positions

Kuniki

Last reported at 2018-Jan-19 21:31 UTC. Time now 2018-Jan-20 10:42 UTC.
Position N 34°13' E 132°15'.

Length 76 m.

Type: Cargo ship. MMSI: 431600408.

Date/timePositionNaut miles runAvg speedWind from/ knotsBaromVisibWave heightAir tempDewpointWater temp
2018-Jan-19 21:31N 34°13' E 132°15'0 0.1
2018-Jan-19 21:06N 34°13' E 132°15'1 7.1
2018-Jan-19 21:00N 34°13' E 132°16'18 9.2
2018-Jan-19 19:01N 34°03' E 132°35'011.1
2018-Jan-19 19:00N 34°03' E 132°35'114 8.2
2018-Jan-19 05:07N 34°43' E 134°44'2 9.9
2018-Jan-19 04:55N 34°42' E 134°46'5 9.4
2018-Jan-19 04:23N 34°39' E 134°51'4 9.4
2018-Jan-19 03:58N 34°37' E 134°56'511.2
2018-Jan-19 03:30N 34°37' E 135°02'510.6
2018-Jan-19 03:00N 34°37' E 135°08'610.9
2018-Jan-19 02:30N 34°38' E 135°15'1 2.3
2018-Jan-19 01:58N 34°39' E 135°15'0 0.0
2018-Jan-19 01:28N 34°39' E 135°15'0 0.6
2018-Jan-19 01:00N 34°39' E 135°15'2 3.9
2018-Jan-19 00:28N 34°41' E 135°17'0 0.0
2018-Jan-18 23:58N 34°41' E 135°17'0 0.0
2018-Jan-18 23:28N 34°41' E 135°17'2 3.5
2018-Jan-18 23:00N 34°40' E 135°15'1 2.0
2018-Jan-18 22:24N 34°39' E 135°15'0 0.1
2018-Jan-18 22:00N 34°39' E 135°15'0 0.0
2018-Jan-18 21:30N 34°39' E 135°15'0 0.0
2018-Jan-18 21:00N 34°39' E 135°15'0 0.0
2018-Jan-18 20:30N 34°39' E 135°15'0 0.1
2018-Jan-18 20:00N 34°39' E 135°15'0 0.0
2018-Jan-18 19:30N 34°39' E 135°15'0 0.1
2018-Jan-18 19:00N 34°39' E 135°15'0 0.0
2018-Jan-18 18:30N 34°39' E 135°15'0 0.0
2018-Jan-18 18:00N 34°39' E 135°15'0 0.1
2018-Jan-18 17:30N 34°39' E 135°15'0 0.1
2018-Jan-18 17:00N 34°39' E 135°15'0 0.0
2018-Jan-18 16:30N 34°39' E 135°15'0 0.1
2018-Jan-18 16:00N 34°39' E 135°15'0 0.0
2018-Jan-18 15:30N 34°39' E 135°15'0 0.0
2018-Jan-18 15:00N 34°39' E 135°15'0 0.0
2018-Jan-18 14:30N 34°39' E 135°15'0 0.0
2018-Jan-18 14:00N 34°39' E 135°15'0 0.0
2018-Jan-18 13:30N 34°39' E 135°15'0 0.0
2018-Jan-18 13:00N 34°39' E 135°15'0 0.0
2018-Jan-18 12:30N 34°39' E 135°15'0 0.0
2018-Jan-18 12:00N 34°39' E 135°15'1 2.8
2018-Jan-18 11:30N 34°38' E 135°14'510.6
2018-Jan-18 11:00N 34°35' E 135°08'510.3
2018-Jan-18 10:30N 34°36' E 135°02'5 9.7
2018-Jan-18 09:59N 34°37' E 134°56'9 1.5
2018-Jan-18 03:49N 34°41' E 134°46'5 9.7
2018-Jan-18 03:16N 34°38' E 134°52'310.1
2018-Jan-18 02:59N 34°37' E 134°55'511.3
2018-Jan-18 02:30N 34°37' E 135°02'510.5
2018-Jan-18 02:00N 34°36' E 135°08'510.7
2018-Jan-18 01:30N 34°38' E 135°14'2 3.0
2018-Jan-18 01:00N 34°39' E 135°15'0 0.3
2018-Jan-17 23:58N 34°39' E 135°15'0 1.0
2018-Jan-17 23:55N 34°39' E 135°15'  
2018-Jan-12 05:14N 34°43' E 134°43'310.2
2018-Jan-12 04:56N 34°41' E 134°47'5 9.8
2018-Jan-12 04:25N 34°39' E 134°52'4 9.0
2018-Jan-12 04:00N 34°38' E 134°56'5 8.7
2018-Jan-12 03:29N 34°37' E 135°02'4 8.3
2018-Jan-12 03:00N 34°37' E 135°07'5 9.5
2018-Jan-12 02:30N 34°37' E 135°12'4 8.2
2018-Jan-12 02:00N 34°40' E 135°16'1 1.7
2018-Jan-12 01:30N 34°41' E 135°17'0 0.5
2018-Jan-12 00:58N 34°41' E 135°16'2 4.5
2018-Jan-12 00:29N 34°39' E 135°15'0 0.0
2018-Jan-11 23:59N 34°39' E 135°15'0 0.0
2018-Jan-11 23:29N 34°39' E 135°15'1 1.5
2018-Jan-11 23:00N 34°39' E 135°15'0 0.0
2018-Jan-11 22:29N 34°39' E 135°15'0 0.0
2018-Jan-11 21:59N 34°39' E 135°15'0 0.0
2018-Jan-11 21:29N 34°39' E 135°15'0 0.0
2018-Jan-11 20:59N 34°39' E 135°15'0 0.0
2018-Jan-11 20:29N 34°39' E 135°15'0 0.0
2018-Jan-11 19:59N 34°39' E 135°15'0 0.0
2018-Jan-11 19:29N 34°39' E 135°15'0 0.0
2018-Jan-11 18:59N 34°39' E 135°15'0 0.0
2018-Jan-11 18:29N 34°39' E 135°15'0 0.0
2018-Jan-11 17:56N 34°39' E 135°15'0 0.0
2018-Jan-11 17:29N 34°39' E 135°15'0 0.0
2018-Jan-11 16:59N 34°39' E 135°15'0 0.0
2018-Jan-11 16:29N 34°39' E 135°15'0 0.0
2018-Jan-11 15:59N 34°39' E 135°15'0 0.0
2018-Jan-11 15:29N 34°39' E 135°15'0 0.0
2018-Jan-11 14:59N 34°39' E 135°15'0 0.0
2018-Jan-11 14:29N 34°39' E 135°15'0 0.0
2018-Jan-11 13:56N 34°39' E 135°15'0 0.0
2018-Jan-11 13:29N 34°39' E 135°15'0 0.0
2018-Jan-11 12:59N 34°39' E 135°15'0 0.0
2018-Jan-11 12:29N 34°39' E 135°15'0 0.0
2018-Jan-11 11:59N 34°39' E 135°15'0 0.0
2018-Jan-11 11:29N 34°39' E 135°15'0 0.1
2018-Jan-11 10:59N 34°39' E 135°15'4 8.3
2018-Jan-11 10:29N 34°36' E 135°11'611.6
2018-Jan-11 10:00N 34°35' E 135°04'510.9
2018-Jan-11 09:30N 34°37' E 134°58'10 2.0
2018-Jan-11 04:26N 34°41' E 134°47'4 9.8
2018-Jan-11 04:00N 34°39' E 134°51'5 9.7
2018-Jan-11 03:30N 34°38' E 134°57'5 8.8
2018-Jan-11 02:59N 34°37' E 135°02'4 9.1
2018-Jan-11 02:30N 34°37' E 135°08'5 9.7
2018-Jan-11 02:00N 34°38' E 135°13'2 4.1
2018-Jan-11 01:29N 34°40' E 135°14'0 0.7
2018-Jan-11 01:00N 34°39' E 135°15'2 4.3
2018-Jan-11 00:30N 34°41' E 135°17'0 0.3
2018-Jan-10 23:59N 34°41' E 135°17'0 0.2
2018-Jan-10 23:30N 34°41' E 135°17'3 4.7
2018-Jan-10 22:58N 34°39' E 135°15'0 0.2
2018-Jan-10 22:28N 34°39' E 135°15'0 0.0
2018-Jan-10 21:58N 34°39' E 135°15'0 0.0
2018-Jan-10 21:28N 34°39' E 135°15'0 0.0
2018-Jan-10 20:58N 34°39' E 135°15'0 0.0
2018-Jan-10 20:28N 34°39' E 135°15'0 0.1
2018-Jan-10 19:58N 34°39' E 135°15'0 0.0
2018-Jan-10 19:28N 34°39' E 135°15'0 0.0
2018-Jan-10 18:58N 34°39' E 135°15'0 0.1
2018-Jan-10 18:28N 34°39' E 135°15'0 0.1
2018-Jan-10 17:58N 34°39' E 135°15'0 0.1
2018-Jan-10 17:28N 34°39' E 135°15'0 0.0
2018-Jan-10 16:58N 34°39' E 135°15'0 0.0
2018-Jan-10 16:28N 34°39' E 135°15'0 0.0
2018-Jan-10 15:58N 34°39' E 135°15'0 0.0
2018-Jan-10 15:28N 34°39' E 135°15'0 0.0
2018-Jan-10 14:58N 34°39' E 135°15'0 0.0
2018-Jan-10 14:28N 34°39' E 135°15'0 0.0
2018-Jan-10 13:58N 34°39' E 135°15'0 0.0
2018-Jan-10 13:28N 34°39' E 135°15'0 0.0
2018-Jan-10 12:58N 34°39' E 135°15'0 0.0
2018-Jan-10 12:28N 34°39' E 135°15'0 0.0
2018-Jan-10 11:58N 34°39' E 135°15'0 0.0
2018-Jan-10 11:28N 34°39' E 135°15'0 0.0
2018-Jan-10 10:58N 34°39' E 135°15'1 1.4
2018-Jan-10 10:30N 34°38' E 135°15'510.8
2018-Jan-10 10:00N 34°36' E 135°09'510.8
2018-Jan-10 09:30N 34°36' E 135°02'611.0
2018-Jan-10 08:57N 34°36' E 134°55'9 1.9
2018-Jan-10 04:19N 34°41' E 134°46'310.8
2018-Jan-10 04:00N 34°40' E 134°50'510.5
2018-Jan-10 03:30N 34°38' E 134°56'510.4
2018-Jan-10 03:00N 34°37' E 135°02'5 9.6
2018-Jan-10 02:30N 34°36' E 135°08'510.1
2018-Jan-10 02:00N 34°38' E 135°14'2 3.0
2018-Jan-10 01:28N 34°39' E 135°15'0 0.9
2018-Jan-10 01:00N 34°39' E 135°15'2 4.0
2018-Jan-10 00:30N 34°41' E 135°17'0 0.4
2018-Jan-10 00:00N 34°41' E 135°17'0 0.2
2018-Jan-09 23:30N 34°41' E 135°16'0 0.0
2018-Jan-09 23:00N 34°41' E 135°16'0 0.0
2018-Jan-09 22:30N 34°41' E 135°16'0 0.0
2018-Jan-09 22:00N 34°41' E 135°16'  
Track history (hours):
 
Tides and Currents Weather Stations Pressure Air Temp Water Temp Dewpoint Dewpoint Depression Visibility Wind Speed Wind Dir Waves Ship Positions

Kuniki

Last reported at 2018-Jan-19 21:31 UTC. Time now 2018-Jan-20 10:42 UTC.
Position N 34°13' E 132°15'.

Length 76 m.

Type: Cargo ship. MMSI: 431600408.

Date/timePositionNaut miles runAvg speedWind from/ knotsBaromVisibWave heightAir tempDewpointWater temp
2018-Jan-19 21:31N 34°13' E 132°15'0 0.1
2018-Jan-19 21:06N 34°13' E 132°15'1 7.1
2018-Jan-19 21:00N 34°13' E 132°16'18 9.2
2018-Jan-19 19:01N 34°03' E 132°35'011.1
2018-Jan-19 19:00N 34°03' E 132°35'114 8.2
2018-Jan-19 05:07N 34°43' E 134°44'2 9.9
2018-Jan-19 04:55N 34°42' E 134°46'5 9.4
2018-Jan-19 04:23N 34°39' E 134°51'4 9.4
2018-Jan-19 03:58N 34°37' E 134°56'511.2
2018-Jan-19 03:30N 34°37' E 135°02'510.6
2018-Jan-19 03:00N 34°37' E 135°08'610.9
2018-Jan-19 02:30N 34°38' E 135°15'1 2.3
2018-Jan-19 01:58N 34°39' E 135°15'0 0.0
2018-Jan-19 01:28N 34°39' E 135°15'0 0.6
2018-Jan-19 01:00N 34°39' E 135°15'2 3.9
2018-Jan-19 00:28N 34°41' E 135°17'0 0.0
2018-Jan-18 23:58N 34°41' E 135°17'0 0.0
2018-Jan-18 23:28N 34°41' E 135°17'2 3.5
2018-Jan-18 23:00N 34°40' E 135°15'1 2.0
2018-Jan-18 22:24N 34°39' E 135°15'0 0.1
2018-Jan-18 22:00N 34°39' E 135°15'0 0.0
2018-Jan-18 21:30N 34°39' E 135°15'0 0.0
2018-Jan-18 21:00N 34°39' E 135°15'0 0.0
2018-Jan-18 20:30N 34°39' E 135°15'0 0.1
2018-Jan-18 20:00N 34°39' E 135°15'0 0.0
2018-Jan-18 19:30N 34°39' E 135°15'0 0.1
2018-Jan-18 19:00N 34°39' E 135°15'0 0.0
2018-Jan-18 18:30N 34°39' E 135°15'0 0.0
2018-Jan-18 18:00N 34°39' E 135°15'0 0.1
2018-Jan-18 17:30N 34°39' E 135°15'0 0.1
2018-Jan-18 17:00N 34°39' E 135°15'0 0.0
2018-Jan-18 16:30N 34°39' E 135°15'0 0.1
2018-Jan-18 16:00N 34°39' E 135°15'0 0.0
2018-Jan-18 15:30N 34°39' E 135°15'0 0.0
2018-Jan-18 15:00N 34°39' E 135°15'0 0.0
2018-Jan-18 14:30N 34°39' E 135°15'0 0.0
2018-Jan-18 14:00N 34°39' E 135°15'0 0.0
2018-Jan-18 13:30N 34°39' E 135°15'0 0.0
2018-Jan-18 13:00N 34°39' E 135°15'0 0.0
2018-Jan-18 12:30N 34°39' E 135°15'0 0.0
2018-Jan-18 12:00N 34°39' E 135°15'1 2.8
2018-Jan-18 11:30N 34°38' E 135°14'510.6
2018-Jan-18 11:00N 34°35' E 135°08'510.3
2018-Jan-18 10:30N 34°36' E 135°02'5 9.7
2018-Jan-18 09:59N 34°37' E 134°56'9 1.5
2018-Jan-18 03:49N 34°41' E 134°46'5 9.7
2018-Jan-18 03:16N 34°38' E 134°52'310.1
2018-Jan-18 02:59N 34°37' E 134°55'511.3
2018-Jan-18 02:30N 34°37' E 135°02'510.5
2018-Jan-18 02:00N 34°36' E 135°08'510.7
2018-Jan-18 01:30N 34°38' E 135°14'2 3.0
2018-Jan-18 01:00N 34°39' E 135°15'0 0.3
2018-Jan-17 23:58N 34°39' E 135°15'0 1.0
2018-Jan-17 23:55N 34°39' E 135°15'  
2018-Jan-12 05:14N 34°43' E 134°43'310.2
2018-Jan-12 04:56N 34°41' E 134°47'5 9.8
2018-Jan-12 04:25N 34°39' E 134°52'4 9.0
2018-Jan-12 04:00N 34°38' E 134°56'5 8.7
2018-Jan-12 03:29N 34°37' E 135°02'4 8.3
2018-Jan-12 03:00N 34°37' E 135°07'5 9.5
2018-Jan-12 02:30N 34°37' E 135°12'4 8.2
2018-Jan-12 02:00N 34°40' E 135°16'1 1.7
2018-Jan-12 01:30N 34°41' E 135°17'0 0.5
2018-Jan-12 00:58N 34°41' E 135°16'2 4.5
2018-Jan-12 00:29N 34°39' E 135°15'0 0.0
2018-Jan-11 23:59N 34°39' E 135°15'0 0.0
2018-Jan-11 23:29N 34°39' E 135°15'1 1.5
2018-Jan-11 23:00N 34°39' E 135°15'0 0.0
2018-Jan-11 22:29N 34°39' E 135°15'0 0.0
2018-Jan-11 21:59N 34°39' E 135°15'0 0.0
2018-Jan-11 21:29N 34°39' E 135°15'0 0.0
2018-Jan-11 20:59N 34°39' E 135°15'0 0.0
2018-Jan-11 20:29N 34°39' E 135°15'0 0.0
2018-Jan-11 19:59N 34°39' E 135°15'0 0.0
2018-Jan-11 19:29N 34°39' E 135°15'0 0.0
2018-Jan-11 18:59N 34°39' E 135°15'0 0.0
2018-Jan-11 18:29N 34°39' E 135°15'0 0.0
2018-Jan-11 17:56N 34°39' E 135°15'0 0.0
2018-Jan-11 17:29N 34°39' E 135°15'0 0.0
2018-Jan-11 16:59N 34°39' E 135°15'0 0.0
2018-Jan-11 16:29N 34°39' E 135°15'0 0.0
2018-Jan-11 15:59N 34°39' E 135°15'0 0.0
2018-Jan-11 15:29N 34°39' E 135°15'0 0.0
2018-Jan-11 14:59N 34°39' E 135°15'0 0.0
2018-Jan-11 14:29N 34°39' E 135°15'0 0.0
2018-Jan-11 13:56N 34°39' E 135°15'0 0.0
2018-Jan-11 13:29N 34°39' E 135°15'0 0.0
2018-Jan-11 12:59N 34°39' E 135°15'0 0.0
2018-Jan-11 12:29N 34°39' E 135°15'0 0.0
2018-Jan-11 11:59N 34°39' E 135°15'0 0.0
2018-Jan-11 11:29N 34°39' E 135°15'0 0.1
2018-Jan-11 10:59N 34°39' E 135°15'4 8.3
2018-Jan-11 10:29N 34°36' E 135°11'611.6
2018-Jan-11 10:00N 34°35' E 135°04'510.9
2018-Jan-11 09:30N 34°37' E 134°58'10 2.0
2018-Jan-11 04:26N 34°41' E 134°47'4 9.8
2018-Jan-11 04:00N 34°39' E 134°51'5 9.7
2018-Jan-11 03:30N 34°38' E 134°57'5 8.8
2018-Jan-11 02:59N 34°37' E 135°02'4 9.1
2018-Jan-11 02:30N 34°37' E 135°08'5 9.7
2018-Jan-11 02:00N 34°38' E 135°13'2 4.1
2018-Jan-11 01:29N 34°40' E 135°14'0 0.7
2018-Jan-11 01:00N 34°39' E 135°15'2 4.3
2018-Jan-11 00:30N 34°41' E 135°17'0 0.3
2018-Jan-10 23:59N 34°41' E 135°17'0 0.2
2018-Jan-10 23:30N 34°41' E 135°17'3 4.7
2018-Jan-10 22:58N 34°39' E 135°15'0 0.2
2018-Jan-10 22:28N 34°39' E 135°15'0 0.0
2018-Jan-10 21:58N 34°39' E 135°15'0 0.0
2018-Jan-10 21:28N 34°39' E 135°15'0 0.0
2018-Jan-10 20:58N 34°39' E 135°15'0 0.0
2018-Jan-10 20:28N 34°39' E 135°15'0 0.1
2018-Jan-10 19:58N 34°39' E 135°15'0 0.0
2018-Jan-10 19:28N 34°39' E 135°15'0 0.0
2018-Jan-10 18:58N 34°39' E 135°15'0 0.1
2018-Jan-10 18:28N 34°39' E 135°15'0 0.1
2018-Jan-10 17:58N 34°39' E 135°15'0 0.1
2018-Jan-10 17:28N 34°39' E 135°15'0 0.0
2018-Jan-10 16:58N 34°39' E 135°15'0 0.0
2018-Jan-10 16:28N 34°39' E 135°15'0 0.0
2018-Jan-10 15:58N 34°39' E 135°15'0 0.0
2018-Jan-10 15:28N 34°39' E 135°15'0 0.0
2018-Jan-10 14:58N 34°39' E 135°15'0 0.0
2018-Jan-10 14:28N 34°39' E 135°15'0 0.0
2018-Jan-10 13:58N 34°39' E 135°15'0 0.0
2018-Jan-10 13:28N 34°39' E 135°15'0 0.0
2018-Jan-10 12:58N 34°39' E 135°15'0 0.0
2018-Jan-10 12:28N 34°39' E 135°15'0 0.0
2018-Jan-10 11:58N 34°39' E 135°15'0 0.0
2018-Jan-10 11:28N 34°39' E 135°15'0 0.0
2018-Jan-10 10:58N 34°39' E 135°15'1 1.4
2018-Jan-10 10:30N 34°38' E 135°15'510.8
2018-Jan-10 10:00N 34°36' E 135°09'510.8
2018-Jan-10 09:30N 34°36' E 135°02'611.0
2018-Jan-10 08:57N 34°36' E 134°55'9 1.9
2018-Jan-10 04:19N 34°41' E 134°46'310.8
2018-Jan-10 04:00N 34°40' E 134°50'510.5
2018-Jan-10 03:30N 34°38' E 134°56'510.4
2018-Jan-10 03:00N 34°37' E 135°02'5 9.6
2018-Jan-10 02:30N 34°36' E 135°08'510.1
2018-Jan-10 02:00N 34°38' E 135°14'2 3.0
2018-Jan-10 01:28N 34°39' E 135°15'0 0.9
2018-Jan-10 01:00N 34°39' E 135°15'2 4.0
2018-Jan-10 00:30N 34°41' E 135°17'0 0.4
2018-Jan-10 00:00N 34°41' E 135°17'0 0.2
2018-Jan-09 23:30N 34°41' E 135°16'0 0.0
2018-Jan-09 23:00N 34°41' E 135°16'0 0.0
2018-Jan-09 22:30N 34°41' E 135°16'0 0.0
2018-Jan-09 22:00N 34°41' E 135°16'  

Dump ship's entire track history